This is the latest recevied weather packets stored in our database for station/object N7SXG. If no packets are shown the sender has not sent any weather packets the latest 10 day(s).
| Time | Temp. | Humidity | Pressure | Rain* | Wind** | Luminosity | Snow |
|---|---|---|---|---|---|---|---|
| 1778140861 | 4.44° C | 82% | 1015.5 hPa | 0 mm | - | - | - |
| 1778130957 | 5° C | 77% | 1016.1 hPa | 0 mm | - | - | - |
| 1778128259 | 5.56° C | 75% | 1015.8 hPa | 0 mm | - | - | - |
| 1778125560 | 6.67° C | 74% | 1015.6 hPa | 0 mm | - | - | - |
| 1778123755 | 7.22° C | 72% | 1015.7 hPa | 0 mm | - | - | - |
| 1778121055 | 8.33° C | 68% | 1015.8 hPa | 0 mm | - | - | - |
| 1778119258 | 9.44° C | 64% | 1015.8 hPa | 0 mm | - | - | - |
| 1778117453 | 10.56° C | 62% | 1015.4 hPa | 0 mm | - | - | - |
| 1778113856 | 11.67° C | 59% | 1014.9 hPa | 0 mm | - | - | - |
| 1778103964 | 13.33° C | 58% | 1014.8 hPa | 0 mm | - | - | - |
| 1778100371 | 13.33° C | 55% | 1014.6 hPa | 0 mm | - | - | - |
| 1778097657 | 13.33° C | 55% | 1014.3 hPa | 0 mm | - | - | - |
| 1778096754 | 13.89° C | 56% | 1014.2 hPa | 0 mm | - | - | - |
| 1778091357 | 14.44° C | 58% | 1014.2 hPa | 0 mm | - | - | - |
| 1778088685 | 15° C | 57% | 1014.5 hPa | 0 mm | - | - | - |
| 1778083271 | 13.89° C | 64% | 1014.3 hPa | 0 mm | - | - | - |
| 1778081456 | 12.78° C | 66% | 1014.4 hPa | 0.25 mm | - | - | - |
| 1778079663 | 12.22° C | 69% | 1013.6 hPa | 0.25 mm | - | - | - |
| 1778074295 | 7.22° C | 92% | 1012.9 hPa | 0 mm | - | - | - |
| 1778073363 | 7.22° C | 93% | 1012.9 hPa | 0 mm | - | - | - |
| 1778070655 | 6.11° C | 93% | 1012.6 hPa | 0 mm | - | - | - |
| 1778064364 | 5.56° C | 93% | 1010.8 hPa | 0 mm | - | - | - |
| 1778056259 | 6.11° C | 93% | 1009.4 hPa | 0.76 mm | - | - | - |
| 1778049956 | 6.67° C | 93% | 1009.5 hPa | 1.52 mm | - | - | - |
| 1778045456 | 7.78° C | 93% | 1009.2 hPa | 4.06 mm | - | - | - |
* Rain latest hour (hover to see other rain measurements)
** Current wind speed in m/s (hover to see current wind gust speed)